^^
Datos históricos de la estación: Murcia-Puente Tocinos
Diario Informe para Abril 4, 2019 Unidades:  Ambas    Inglés   Métrico
Diario Semanal Mensual Anual Configurable
  Máximo: Mínimo: Media:
Temperatura: 64.9 °F /  18.3 °C 52.5 °F /  11.4 °C 59.4 °F /  15.2 °C
Punto de rocio: 50.7 °F /  10.4 °C 36 °F /  2.2 °C 44.1 °F /  6.7 °C
Humedad: 83% 37% 59%
Velocidad viento: 13mph /  20.9km/h - 5.3mph /  8.6km/h
Racha viento: 23mph /  37.0km/h - -
Viento- - SSE
Presión: 29.7 in /  1004.3 hPa 29.5 in /  999.4 hPa -
Precipitación: 0 in /  0.0 mm    
Historical Graphs
 
 
Tabla de datos para Abril 4, 2019
Hora Temperatura Punto de rocio Presión Viento Velocidad viento Racha viento Humedad Intensidad lluvia(por hora) Nubes
00:00 64.6 °F /  18.1 °C 47.1 °F /  8.4 °C 29.5in /  999.4hPa SSW 5mph /  8.0km/h 9mph /  14.5km/h 53% 0in /  0.0mm CLR
00:05 64.4 °F /  18.0 °C 46.9 °F /  8.3 °C 29.5in /  999.5hPa West 5.2mph /  8.4km/h 4.6mph /  7.4km/h 53% 0in /  0.0mm CLR
00:10 64.2 °F /  17.9 °C 46.8 °F /  8.2 °C 29.5in /  999.5hPa South 4.3mph /  6.9km/h 6.9mph /  11.1km/h 53% 0in /  0.0mm CLR
00:15 64.2 °F /  17.9 °C 45.7 °F /  7.6 °C 29.5in /  999.5hPa WSW 4.3mph /  6.9km/h 5.8mph /  9.3km/h 51% 0in /  0.0mm CLR
00:20 64.4 °F /  18.0 °C 44.8 °F /  7.1 °C 29.5in /  999.6hPa WSW 4.3mph /  6.9km/h 4.6mph /  7.4km/h 49% 0in /  0.0mm CLR
00:25 64.4 °F /  18.0 °C 44.2 °F /  6.8 °C 29.5in /  999.6hPa WNW 4.3mph /  6.9km/h 9.2mph /  14.8km/h 48% 0in /  0.0mm CLR
00:30 64.6 °F /  18.1 °C 43.3 °F /  6.3 °C 29.5in /  999.6hPa NW 4.3mph /  6.9km/h 9.2mph /  14.8km/h 46% 0in /  0.0mm CLR
00:35 64.8 °F /  18.2 °C 42.3 °F /  5.7 °C 29.5in /  999.7hPa NW 4.3mph /  6.9km/h 16.1mph /  25.9km/h 44% 0in /  0.0mm CLR
00:40 64.9 °F /  18.3 °C 40.6 °F /  4.8 °C 29.5in /  999.7hPa NW 8.1mph /  13.0km/h 15mph /  24.1km/h 41% 0in /  0.0mm CLR
00:45 64.9 °F /  18.3 °C 40.6 °F /  4.8 °C 29.5in /  999.7hPa NW 8.1mph /  13.0km/h 12.7mph /  20.4km/h 41% 0in /  0.0mm CLR
00:50 64.9 °F /  18.3 °C 40.6 °F /  4.8 °C 29.5in /  999.7hPa WNW 8.1mph /  13.0km/h 12.7mph /  20.4km/h 41% 0in /  0.0mm CLR
00:55 64.8 °F /  18.2 °C 39.9 °F /  4.4 °C 29.5in /  999.7hPa WNW 8.1mph /  13.0km/h 12.7mph /  20.4km/h 40% 0in /  0.0mm CLR
01:00 64.8 °F /  18.2 °C 39.9 °F /  4.4 °C 29.5in /  999.7hPa WNW 8mph /  12.9km/h 12mph /  19.3km/h 40% 0in /  0.0mm CLR
01:05 64.6 °F /  18.1 °C 39.7 °F /  4.3 °C 29.5in /  999.7hPa WNW 8.5mph /  13.7km/h 10.7mph /  17.2km/h 40% 0in /  0.0mm CLR
01:10 64.6 °F /  18.1 °C 39.7 °F /  4.3 °C 29.5in /  999.7hPa WNW 7.6mph /  12.2km/h 12.7mph /  20.4km/h 40% 0in /  0.0mm CLR
01:15 64.2 °F /  17.9 °C 39.4 °F /  4.1 °C 29.5in /  999.7hPa West 7.6mph /  12.2km/h 9.2mph /  14.8km/h 40% 0in /  0.0mm CLR
01:20 64 °F /  17.8 °C 39.2 °F /  4.0 °C 29.5in /  1000.0hPa WNW 6.9mph /  11.1km/h 6.9mph /  11.1km/h 40% 0in /  0.0mm CLR
01:25 63.9 °F /  17.7 °C 39 °F /  3.9 °C 29.5in /  1000.0hPa NW 6.9mph /  11.1km/h 5.9mph /  9.5km/h 40% 0in /  0.0mm CLR
01:30 63.9 °F /  17.7 °C 39.7 °F /  4.3 °C 29.5in /  1000.0hPa West 4mph /  6.4km/h 3.5mph /  5.6km/h 41% 0in /  0.0mm CLR
01:35 63.5 °F /  17.5 °C 39.9 °F /  4.4 °C 29.5in /  1000.3hPa ENE 4mph /  6.4km/h 4.7mph /  7.6km/h 42% 0in /  0.0mm CLR
01:40 63.1 °F /  17.3 °C 39.7 °F /  4.3 °C 29.5in /  1000.3hPa NE 2.4mph /  3.9km/h 2.3mph /  3.7km/h 42% 0in /  0.0mm CLR
01:45 63.1 °F /  17.3 °C 39 °F /  3.9 °C 29.5in /  1000.3hPa SW 2.4mph /  3.9km/h 4.7mph /  7.6km/h 41% 0in /  0.0mm CLR
01:50 63.1 °F /  17.3 °C 39.7 °F /  4.3 °C 29.5in /  1000.3hPa South 2.4mph /  3.9km/h 5.8mph /  9.3km/h 42% 0in /  0.0mm CLR
01:55 63.1 °F /  17.3 °C 38.5 °F /  3.6 °C 29.5in /  1000.3hPa SW 2.4mph /  3.9km/h 5.8mph /  9.3km/h 40% 0in /  0.0mm CLR
02:00 63.3 °F /  17.4 °C 38.5 °F /  3.6 °C 29.5in /  1000.3hPa WSW 3mph /  4.8km/h 8mph /  12.9km/h 40% 0in /  0.0mm CLR
02:05 63.3 °F /  17.4 °C 38.7 °F /  3.7 °C 29.5in /  1000.4hPa West 3.6mph /  5.8km/h 3.5mph /  5.6km/h 40% 0in /  0.0mm CLR
02:10 63.1 °F /  17.3 °C 39 °F /  3.9 °C 29.5in /  1000.4hPa West 3.6mph /  5.8km/h 3.6mph /  5.8km/h 41% 0in /  0.0mm CLR
02:15 63 °F /  17.2 °C 38.8 °F /  3.8 °C 29.5in /  1000.4hPa WSW 3.6mph /  5.8km/h 4.6mph /  7.4km/h 41% 0in /  0.0mm CLR
02:20 63 °F /  17.2 °C 38.1 °F /  3.4 °C 29.5in /  1000.4hPa West 2.9mph /  4.7km/h 3.5mph /  5.6km/h 40% 0in /  0.0mm CLR
02:25 63.1 °F /  17.3 °C 38.5 °F /  3.6 °C 29.5in /  1000.4hPa West 2.9mph /  4.7km/h 4.6mph /  7.4km/h 40% 0in /  0.0mm CLR
02:30 63 °F /  17.2 °C 38.8 °F /  3.8 °C 29.5in /  1000.4hPa SW 2.9mph /  4.7km/h 2.3mph /  3.7km/h 41% 0in /  0.0mm CLR
02:35 62.8 °F /  17.1 °C 38.7 °F /  3.7 °C 29.5in /  1000.5hPa SW 2.9mph /  4.7km/h 2.3mph /  3.7km/h 41% 0in /  0.0mm CLR
02:40 62.8 °F /  17.1 °C 38.7 °F /  3.7 °C 29.5in /  1000.5hPa SW 1.8mph /  2.9km/h   41% 0in /  0.0mm CLR
02:45 62.6 °F /  17.0 °C 38.7 °F /  3.7 °C 29.5in /  1000.5hPa West 1.8mph /  2.9km/h 9.2mph /  14.8km/h 41% 0in /  0.0mm CLR
02:50 62.4 °F /  16.9 °C 39 °F /  3.9 °C 29.5in /  1000.3hPa WNW 3.6mph /  5.8km/h 5.8mph /  9.3km/h 42% 0in /  0.0mm CLR
02:55 62.2 °F /  16.8 °C 38.8 °F /  3.8 °C 29.5in /  1000.3hPa NNW 3.6mph /  5.8km/h 5.8mph /  9.3km/h 42% 0in /  0.0mm CLR
03:00 62.1 °F /  16.7 °C 39.4 °F /  4.1 °C 29.5in /  1000.3hPa NW 5mph /  8.0km/h 8mph /  12.9km/h 43% 0in /  0.0mm CLR
03:05 60.6 °F /  15.9 °C 43 °F /  6.1 °C 29.6in /  1000.6hPa NNE 4mph /  6.4km/h 11.5mph /  18.5km/h 52% 0in /  0.0mm CLR
03:10 59.2 °F /  15.1 °C 44.4 °F /  6.9 °C 29.6in /  1000.6hPa NNE 5.9mph /  9.5km/h 9.2mph /  14.8km/h 58% 0in /  0.0mm CLR
03:15 57.9 °F /  14.4 °C 46.6 °F /  8.1 °C 29.6in /  1000.6hPa NE 5.9mph /  9.5km/h 9.2mph /  14.8km/h 66% 0in /  0.0mm CLR
03:20 57.4 °F /  14.1 °C 48.4 °F /  9.1 °C 29.6in /  1000.6hPa NE 6.2mph /  10.0km/h 8.1mph /  13.0km/h 72% 0in /  0.0mm CLR
03:25 56.8 °F /  13.8 °C 49.6 °F /  9.8 °C 29.6in /  1000.6hPa NNE 6.2mph /  10.0km/h 10.4mph /  16.7km/h 77% 0in /  0.0mm CLR
03:30 56.5 °F /  13.6 °C 50 °F /  10.0 °C 29.6in /  1000.6hPa NNE 6.4mph /  10.3km/h 9.2mph /  14.8km/h 79% 0in /  0.0mm CLR
03:35 56.1 °F /  13.4 °C 50.4 °F /  10.2 °C 29.6in /  1000.7hPa NNE 6.4mph /  10.3km/h 8.1mph /  13.0km/h 81% 0in /  0.0mm CLR
03:40 55.9 °F /  13.3 °C 50.5 °F /  10.3 °C 29.6in /  1000.7hPa North 6.4mph /  10.3km/h 10.4mph /  16.7km/h 82% 0in /  0.0mm CLR
03:45 55.8 °F /  13.2 °C 50.7 °F /  10.4 °C 29.6in /  1000.7hPa NE 6.4mph /  10.3km/h 9.2mph /  14.8km/h 83% 0in /  0.0mm CLR
03:50 55.8 °F /  13.2 °C 50.7 °F /  10.4 °C 29.6in /  1000.7hPa NNE 6.2mph /  10.0km/h 5.8mph /  9.3km/h 83% 0in /  0.0mm CLR
03:55 55.6 °F /  13.1 °C 50.5 °F /  10.3 °C 29.6in /  1000.7hPa NNE 6.2mph /  10.0km/h 8.1mph /  13.0km/h 83% 0in /  0.0mm CLR
04:00 55.6 °F /  13.1 °C 50.5 °F /  10.3 °C 29.6in /  1000.7hPa NE 5mph /  8.0km/h 9mph /  14.5km/h 83% 0in /  0.0mm CLR
04:05 55.4 °F /  13.0 °C 50.4 °F /  10.2 °C 29.6in /  1000.8hPa NE 5.2mph /  8.4km/h 8.1mph /  13.0km/h 83% 0in /  0.0mm CLR
04:10 55.4 °F /  13.0 °C 50 °F /  10.0 °C 29.6in /  1000.8hPa NE 4.7mph /  7.6km/h 10.4mph /  16.7km/h 82% 0in /  0.0mm CLR
04:15 55.2 °F /  12.9 °C 49.8 °F /  9.9 °C 29.6in /  1000.8hPa NE 4.7mph /  7.6km/h 6.4mph /  10.3km/h 82% 0in /  0.0mm CLR
04:20 55.2 °F /  12.9 °C 49.8 °F /  9.9 °C 29.6in /  1000.7hPa NE 4.3mph /  6.9km/h 6.2mph /  10.0km/h 82% 0in /  0.0mm CLR
04:25 55 °F /  12.8 °C 49.3 °F /  9.6 °C 29.6in /  1000.7hPa NE 4.3mph /  6.9km/h 4.6mph /  7.4km/h 81% 0in /  0.0mm CLR
04:30 55 °F /  12.8 °C 48.9 °F /  9.4 °C 29.6in /  1000.7hPa NE 4.3mph /  6.9km/h 8.1mph /  13.0km/h 80% 0in /  0.0mm CLR
04:35 55 °F /  12.8 °C 48.9 °F /  9.4 °C 29.6in /  1000.9hPa NE 4.3mph /  6.9km/h 4.6mph /  7.4km/h 80% 0in /  0.0mm CLR
04:40 54.9 °F /  12.7 °C 48.7 °F /  9.3 °C 29.6in /  1000.9hPa NE 3.1mph /  5.0km/h 4.6mph /  7.4km/h 80% 0in /  0.0mm CLR
04:45 54.9 °F /  12.7 °C 48.6 °F /  9.2 °C 29.6in /  1000.9hPa NE 3.1mph /  5.0km/h 5.8mph /  9.3km/h 79% 0in /  0.0mm CLR
04:50 54.9 °F /  12.7 °C 48.6 °F /  9.2 °C 29.6in /  1001.2hPa NE 4mph /  6.4km/h 5.4mph /  8.7km/h 79% 0in /  0.0mm CLR
04:55 54.9 °F /  12.7 °C 48.6 °F /  9.2 °C 29.6in /  1001.2hPa NNE 4mph /  6.4km/h 4.6mph /  7.4km/h 79% 0in /  0.0mm CLR
05:00 54.7 °F /  12.6 °C 48.4 °F /  9.1 °C 29.6in /  1001.2hPa NE 5mph /  8.0km/h 7mph /  11.3km/h 79% 0in /  0.0mm CLR
05:05 54.7 °F /  12.6 °C 48.4 °F /  9.1 °C 29.6in /  1001.2hPa East 4mph /  6.4km/h 6.9mph /  11.1km/h 79% 0in /  0.0mm CLR
05:10 54.9 °F /  12.7 °C 48.6 °F /  9.2 °C 29.6in /  1001.2hPa ENE 4.7mph /  7.6km/h 6.9mph /  11.1km/h 79% 0in /  0.0mm CLR
05:15 54.9 °F /  12.7 °C 48 °F /  8.9 °C 29.6in /  1001.2hPa NNE 4.7mph /  7.6km/h 5.8mph /  9.3km/h 78% 0in /  0.0mm CLR
05:20 54.7 °F /  12.6 °C 48 °F /  8.9 °C 29.6in /  1001.1hPa ENE 4mph /  6.4km/h 8.1mph /  13.0km/h 78% 0in /  0.0mm CLR
05:25 54.7 °F /  12.6 °C 48 °F /  8.9 °C 29.6in /  1001.1hPa ENE 4mph /  6.4km/h 8.1mph /  13.0km/h 78% 0in /  0.0mm CLR
05:30 54.7 °F /  12.6 °C 48 °F /  8.9 °C 29.6in /  1001.1hPa East 3.6mph /  5.8km/h 5.8mph /  9.3km/h 78% 0in /  0.0mm CLR
05:35 54.5 °F /  12.5 °C 47.8 °F /  8.8 °C 29.6in /  1001.3hPa East 3.6mph /  5.8km/h 5.8mph /  9.3km/h 78% 0in /  0.0mm CLR
05:40 54.5 °F /  12.5 °C 47.8 °F /  8.8 °C 29.6in /  1001.3hPa East 3.6mph /  5.8km/h 3.5mph /  5.6km/h 78% 0in /  0.0mm CLR
05:45 54.3 °F /  12.4 °C 47.3 °F /  8.5 °C 29.6in /  1001.3hPa ESE 3.6mph /  5.8km/h 6.4mph /  10.3km/h 77% 0in /  0.0mm CLR
05:50 54.1 °F /  12.3 °C 47.1 °F /  8.4 °C 29.6in /  1001.3hPa ENE 4mph /  6.4km/h 6.9mph /  11.1km/h 77% 0in /  0.0mm CLR
05:55 54.3 °F /  12.4 °C 46.9 °F /  8.3 °C 29.6in /  1001.3hPa NE 4mph /  6.4km/h 6.9mph /  11.1km/h 76% 0in /  0.0mm CLR
06:00 54.3 °F /  12.4 °C 46.9 °F /  8.3 °C 29.6in /  1001.3hPa NE 5mph /  8.0km/h 9mph /  14.5km/h 76% 0in /  0.0mm CLR
06:05 54.5 °F /  12.5 °C 46.8 °F /  8.2 °C 29.6in /  1001.5hPa East 4.3mph /  6.9km/h 4.6mph /  7.4km/h 75% 0in /  0.0mm CLR
06:10 54.5 °F /  12.5 °C 46.8 °F /  8.2 °C 29.6in /  1001.5hPa NE 3.6mph /  5.8km/h 3.5mph /  5.6km/h 75% 0in /  0.0mm CLR
06:15 54.3 °F /  12.4 °C 46.6 °F /  8.1 °C 29.6in /  1001.5hPa NE 3.6mph /  5.8km/h 3.5mph /  5.6km/h 75% 0in /  0.0mm CLR
06:20 54.3 °F /  12.4 °C 46.9 °F /  8.3 °C 29.6in /  1001.5hPa ENE 2.4mph /  3.9km/h 4.6mph /  7.4km/h 76% 0in /  0.0mm CLR
06:25 54.3 °F /  12.4 °C 46.9 °F /  8.3 °C 29.6in /  1001.5hPa NE 2.4mph /  3.9km/h 4.6mph /  7.4km/h 76% 0in /  0.0mm CLR
06:30 54.3 °F /  12.4 °C 46.9 °F /  8.3 °C 29.6in /  1001.5hPa NE 2.9mph /  4.7km/h 5.2mph /  8.4km/h 76% 0in /  0.0mm CLR
06:35 54.1 °F /  12.3 °C 46.8 °F /  8.2 °C 29.6in /  1001.7hPa NE 2.9mph /  4.7km/h 3.6mph /  5.8km/h 76% 0in /  0.0mm CLR
06:40 54.1 °F /  12.3 °C 46.8 °F /  8.2 °C 29.6in /  1001.7hPa ENE 2.9mph /  4.7km/h 4.6mph /  7.4km/h 76% 0in /  0.0mm CLR
06:45 54.1 °F /  12.3 °C 46.8 °F /  8.2 °C 29.6in /  1001.7hPa ENE 2.9mph /  4.7km/h 4.6mph /  7.4km/h 76% 0in /  0.0mm CLR
06:50 54.1 °F /  12.3 °C 46.8 °F /  8.2 °C 29.6in /  1001.7hPa ENE 2.4mph /  3.9km/h 3.5mph /  5.6km/h 76% 0in /  0.0mm CLR
06:55 54.1 °F /  12.3 °C 46.8 °F /  8.2 °C 29.6in /  1001.7hPa East 2.4mph /  3.9km/h 4.6mph /  7.4km/h 76% 0in /  0.0mm CLR
07:00 54.1 °F /  12.3 °C 46.8 °F /  8.2 °C 29.6in /  1001.7hPa ENE 2mph /  3.2km/h 5mph /  8.0km/h 76% 0in /  0.0mm CLR
07:05 54.1 °F /  12.3 °C 46.8 °F /  8.2 °C 29.6in /  1001.9hPa ENE 2.4mph /  3.9km/h 2.3mph /  3.7km/h 76% 0in /  0.0mm CLR
07:10 54.1 °F /  12.3 °C 46.8 °F /  8.2 °C 29.6in /  1001.9hPa ENE 2mph /  3.2km/h 4.6mph /  7.4km/h 76% 0in /  0.0mm CLR
07:15 54 °F /  12.2 °C 46.6 °F /  8.1 °C 29.6in /  1001.9hPa NNE 2mph /  3.2km/h 4.6mph /  7.4km/h 76% 0in /  0.0mm CLR
07:20 54 °F /  12.2 °C 46.9 °F /  8.3 °C 29.6in /  1002.1hPa NNE 2.4mph /  3.9km/h 2.3mph /  3.7km/h 77% 0in /  0.0mm CLR
07:25 53.6 °F /  12.0 °C 46.6 °F /  8.1 °C 29.6in /  1002.1hPa NNE 2.4mph /  3.9km/h 2.3mph /  3.7km/h 77% 0in /  0.0mm CLR
07:30 53.4 °F /  11.9 °C 46.8 °F /  8.2 °C 29.6in /  1002.1hPa NNE 1.4mph /  2.3km/h 3.5mph /  5.6km/h 78% 0in /  0.0mm CLR
07:35 53.2 °F /  11.8 °C 46.6 °F /  8.1 °C 29.6in /  1002.3hPa NNW 1.4mph /  2.3km/h 4.6mph /  7.4km/h 78% 0in /  0.0mm CLR
07:40 53.1 °F /  11.7 °C 46.8 °F /  8.2 °C 29.6in /  1002.3hPa NNW 2mph /  3.2km/h 3.1mph /  5.0km/h 79% 0in /  0.0mm CLR
07:45 52.9 °F /  11.6 °C 46.6 °F /  8.1 °C 29.6in /  1002.3hPa NNW 2mph /  3.2km/h 1.2mph /  1.9km/h 79% 0in /  0.0mm CLR
07:50 52.7 °F /  11.5 °C 46.8 °F /  8.2 °C 29.6in /  1002.3hPa NNW 1.8mph /  2.9km/h 3.5mph /  5.6km/h 80% 0in /  0.0mm CLR
07:55 52.7 °F /  11.5 °C 46.8 °F /  8.2 °C 29.6in /  1002.3hPa NNW 1.8mph /  2.9km/h 3.5mph /  5.6km/h 80% 0in /  0.0mm CLR
08:00 52.5 °F /  11.4 °C 46.6 °F /  8.1 °C 29.6in /  1002.3hPa NNW 2mph /  3.2km/h 3mph /  4.8km/h 80% 0in /  0.0mm CLR
08:05 52.5 °F /  11.4 °C 46.6 °F /  8.1 °C 29.6in /  1002.5hPa NNW 2mph /  3.2km/h 2.3mph /  3.7km/h 80% 0in /  0.0mm CLR
08:10 52.5 °F /  11.4 °C 46.6 °F /  8.1 °C 29.6in /  1002.5hPa NW 1.8mph /  2.9km/h 4.6mph /  7.4km/h 80% 0in /  0.0mm CLR
08:15 52.5 °F /  11.4 °C 46.9 °F /  8.3 °C 29.6in /  1002.5hPa NW 1.8mph /  2.9km/h 4.6mph /  7.4km/h 81% 0in /  0.0mm CLR
08:20 52.5 °F /  11.4 °C 46.9 °F /  8.3 °C 29.6in /  1002.7hPa NW 2.9mph /  4.7km/h 3.5mph /  5.6km/h 81% 0in /  0.0mm CLR
08:25 52.5 °F /  11.4 °C 46.9 °F /  8.3 °C 29.6in /  1002.7hPa NW 2.9mph /  4.7km/h 4.6mph /  7.4km/h 81% 0in /  0.0mm CLR
08:30 52.7 °F /  11.5 °C 46.9 °F /  8.3 °C 29.6in /  1002.7hPa NW 2.4mph /  3.9km/h 4.6mph /  7.4km/h 81% 0in /  0.0mm CLR
08:35 52.9 °F /  11.6 °C 47.1 °F /  8.4 °C 29.6in /  1002.9hPa NW 2.4mph /  3.9km/h 3.1mph /  5.0km/h 81% 0in /  0.0mm CLR
08:40 52.9 °F /  11.6 °C 46.9 °F /  8.3 °C 29.6in /  1002.9hPa NW 2mph /  3.2km/h 3.5mph /  5.6km/h 80% 0in /  0.0mm CLR
08:45 53.1 °F /  11.7 °C 47.1 °F /  8.4 °C 29.6in /  1002.9hPa NW 2mph /  3.2km/h 3.5mph /  5.6km/h 80% 0in /  0.0mm CLR
08:50 53.1 °F /  11.7 °C 47.1 °F /  8.4 °C 29.6in /  1003.1hPa NW 2mph /  3.2km/h 3.5mph /  5.6km/h 80% 0in /  0.0mm CLR
08:55 53.2 °F /  11.8 °C 47.1 °F /  8.4 °C 29.6in /  1003.1hPa NW 2mph /  3.2km/h 2.3mph /  3.7km/h 80% 0in /  0.0mm CLR
09:00 53.4 °F /  11.9 °C 47.5 °F /  8.6 °C 29.6in /  1003.1hPa NW 2mph /  3.2km/h 3mph /  4.8km/h 80% 0in /  0.0mm CLR
09:05 53.8 °F /  12.1 °C 47.8 °F /  8.8 °C 29.6in /  1003.3hPa NW 1.8mph /  2.9km/h 2.3mph /  3.7km/h 80% 0in /  0.0mm CLR
09:10 53.8 °F /  12.1 °C 47.5 °F /  8.6 °C 29.6in /  1003.3hPa NW 1.4mph /  2.3km/h   79% 0in /  0.0mm CLR
09:15 54 °F /  12.2 °C 47.7 °F /  8.7 °C 29.6in /  1003.3hPa NW 1.4mph /  2.3km/h   79% 0in /  0.0mm CLR
09:20 54.1 °F /  12.3 °C 47.5 °F /  8.6 °C 29.6in /  1003.5hPa Calm     78% 0in /  0.0mm CLR
09:25 54.7 °F /  12.6 °C 48 °F /  8.9 °C 29.6in /  1003.5hPa Calm   4.6mph /  7.4km/h 78% 0in /  0.0mm CLR
09:30 55.4 °F /  13.0 °C 48 °F /  8.9 °C 29.6in /  1003.5hPa NE 1.8mph /  2.9km/h 4.6mph /  7.4km/h 76% 0in /  0.0mm CLR
09:35 55.9 °F /  13.3 °C 48.6 °F /  9.2 °C 29.6in /  1003.5hPa NW 1.8mph /  2.9km/h 3.5mph /  5.6km/h 76% 0in /  0.0mm CLR
09:40 56.5 °F /  13.6 °C 48.6 °F /  9.2 °C 29.6in /  1003.5hPa NW 2mph /  3.2km/h   75% 0in /  0.0mm CLR
09:45 57 °F /  13.9 °C 48.4 °F /  9.1 °C 29.6in /  1003.5hPa NE 2mph /  3.2km/h 3.6mph /  5.8km/h 73% 0in /  0.0mm CLR
09:50 57.2 °F /  14.0 °C 47.5 °F /  8.6 °C 29.6in /  1003.6hPa SSW 1.8mph /  2.9km/h 4.6mph /  7.4km/h 70% 0in /  0.0mm CLR
09:55 56.8 °F /  13.8 °C 47.1 °F /  8.4 °C 29.6in /  1003.6hPa SSE 1.8mph /  2.9km/h 3.5mph /  5.6km/h 70% 0in /  0.0mm CLR
10:00 56.8 °F /  13.8 °C 47.5 °F /  8.6 °C 29.6in /  1003.6hPa SSE 2mph /  3.2km/h 5mph /  8.0km/h 71% 0in /  0.0mm CLR
10:05 57 °F /  13.9 °C 47.3 °F /  8.5 °C 29.6in /  1003.6hPa SSE 2.9mph /  4.7km/h 5.8mph /  9.3km/h 70% 0in /  0.0mm CLR
10:10 57.4 °F /  14.1 °C 47.3 °F /  8.5 °C 29.6in /  1003.6hPa ESE 3.6mph /  5.8km/h 5.8mph /  9.3km/h 69% 0in /  0.0mm CLR
10:15 57.2 °F /  14.0 °C 46.8 °F /  8.2 °C 29.6in /  1003.6hPa South 3.6mph /  5.8km/h 5.8mph /  9.3km/h 68% 0in /  0.0mm CLR
10:20 57.4 °F /  14.1 °C 47.3 °F /  8.5 °C 29.6in /  1003.8hPa SSW 3.1mph /  5.0km/h 2.3mph /  3.7km/h 69% 0in /  0.0mm CLR
10:25 57.6 °F /  14.2 °C 47.1 °F /  8.4 °C 29.6in /  1003.8hPa East 3.1mph /  5.0km/h 5.8mph /  9.3km/h 68% 0in /  0.0mm CLR
10:30 57.7 °F /  14.3 °C 47.1 °F /  8.4 °C 29.6in /  1003.8hPa East 2.9mph /  4.7km/h 4.7mph /  7.6km/h 68% 0in /  0.0mm CLR
10:35 57.7 °F /  14.3 °C 46.9 °F /  8.3 °C 29.6in /  1003.7hPa South 2.9mph /  4.7km/h 6.9mph /  11.1km/h 67% 0in /  0.0mm CLR
10:40 57.7 °F /  14.3 °C 47.1 °F /  8.4 °C 29.6in /  1003.7hPa South 4.3mph /  6.9km/h 3.5mph /  5.6km/h 68% 0in /  0.0mm CLR
10:45 58.5 °F /  14.7 °C 47.5 °F /  8.6 °C 29.6in /  1003.7hPa SE 4.3mph /  6.9km/h 3.5mph /  5.6km/h 67% 0in /  0.0mm CLR
10:50 58.6 °F /  14.8 °C 46.9 °F /  8.3 °C 29.6in /  1003.8hPa SE 2.9mph /  4.7km/h 6.9mph /  11.1km/h 65% 0in /  0.0mm CLR
10:55 58.6 °F /  14.8 °C 46.9 °F /  8.3 °C 29.6in /  1003.8hPa SE 2.9mph /  4.7km/h 4.7mph /  7.6km/h 65% 0in /  0.0mm CLR
11:00 58.8 °F /  14.9 °C 46.2 °F /  7.9 °C 29.6in /  1003.8hPa South 3mph /  4.8km/h 9mph /  14.5km/h 63% 0in /  0.0mm CLR
11:05 58.5 °F /  14.7 °C 45.9 °F /  7.7 °C 29.6in /  1003.9hPa West 3.6mph /  5.8km/h 6.9mph /  11.1km/h 63% 0in /  0.0mm CLR
11:10 58.6 °F /  14.8 °C 46 °F /  7.8 °C 29.6in /  1003.9hPa SSW 4.3mph /  6.9km/h 5.8mph /  9.3km/h 63% 0in /  0.0mm CLR
11:15 58.5 °F /  14.7 °C 45.1 °F /  7.3 °C 29.6in /  1003.9hPa WNW 4.3mph /  6.9km/h 2.3mph /  3.7km/h 61% 0in /  0.0mm CLR
11:20 58.8 °F /  14.9 °C 45.3 °F /  7.4 °C 29.6in /  1003.8hPa WSW 2mph /  3.2km/h 3.5mph /  5.6km/h 61% 0in /  0.0mm CLR
11:25 59.5 °F /  15.3 °C 45.7 °F /  7.6 °C 29.6in /  1003.8hPa East 2mph /  3.2km/h 4.6mph /  7.4km/h 60% 0in /  0.0mm CLR
11:30 60.1 °F /  15.6 °C 44.8 °F /  7.1 °C 29.6in /  1003.8hPa SW 2.4mph /  3.9km/h 4.6mph /  7.4km/h 57% 0in /  0.0mm CLR
11:35 60.3 °F /  15.7 °C 43.5 °F /  6.4 °C 29.6in /  1003.9hPa NW 2.4mph /  3.9km/h 6.2mph /  10.0km/h 54% 0in /  0.0mm CLR
11:40 60.4 °F /  15.8 °C 42.3 °F /  5.7 °C 29.6in /  1003.9hPa SE 3.6mph /  5.8km/h 4.6mph /  7.4km/h 51% 0in /  0.0mm CLR
11:45 60.6 °F /  15.9 °C 41.9 °F /  5.5 °C 29.6in /  1003.9hPa ENE 3.6mph /  5.8km/h 5.8mph /  9.3km/h 50% 0in /  0.0mm CLR
11:50 61 °F /  16.1 °C 41.7 °F /  5.4 °C 29.7in /  1004.1hPa NE 2.9mph /  4.7km/h 4.6mph /  7.4km/h 49% 0in /  0.0mm CLR
11:55 60.6 °F /  15.9 °C 43 °F /  6.1 °C 29.7in /  1004.1hPa SW 2.9mph /  4.7km/h 8.1mph /  13.0km/h 52% 0in /  0.0mm CLR
12:00 60.3 °F /  15.7 °C 43.2 °F /  6.2 °C 29.7in /  1004.1hPa West 5mph /  8.0km/h 12mph /  19.3km/h 53% 0in /  0.0mm CLR
12:05 59.5 °F /  15.3 °C 42.4 °F /  5.8 °C 29.7in /  1004.3hPa WNW 5.2mph /  8.4km/h 8.1mph /  13.0km/h 53% 0in /  0.0mm CLR
12:10 59.4 °F /  15.2 °C 41.7 °F /  5.4 °C 29.7in /  1004.3hPa WNW 5.9mph /  9.5km/h 6.9mph /  11.1km/h 52% 0in /  0.0mm CLR
12:15 59.4 °F /  15.2 °C 41.2 °F /  5.1 °C 29.7in /  1004.3hPa West 5.9mph /  9.5km/h 4.6mph /  7.4km/h 51% 0in /  0.0mm CLR
12:20 59.5 °F /  15.3 °C 40.3 °F /  4.6 °C 29.7in /  1004.2hPa West 3.6mph /  5.8km/h 2.3mph /  3.7km/h 49% 0in /  0.0mm CLR
12:25 60.1 °F /  15.6 °C 39.2 °F /  4.0 °C 29.7in /  1004.2hPa West 3.6mph /  5.8km/h 2.3mph /  3.7km/h 46% 0in /  0.0mm CLR
12:30 60.4 °F /  15.8 °C 39.6 °F /  4.2 °C 29.7in /  1004.2hPa ENE 2mph /  3.2km/h 4.6mph /  7.4km/h 46% 0in /  0.0mm CLR
12:35 60.8 °F /  16.0 °C 39.9 °F /  4.4 °C 29.7in /  1004.2hPa NE 2mph /  3.2km/h 4.6mph /  7.4km/h 46% 0in /  0.0mm CLR
12:40 61.3 °F /  16.3 °C 40.5 °F /  4.7 °C 29.7in /  1004.2hPa SW 2.4mph /  3.9km/h 11.5mph /  18.5km/h 46% 0in /  0.0mm CLR
12:45 61.3 °F /  16.3 °C 39.7 °F /  4.3 °C 29.7in /  1004.2hPa WSW 2.4mph /  3.9km/h 10.4mph /  16.7km/h 45% 0in /  0.0mm CLR
12:50 61.2 °F /  16.2 °C 40.3 °F /  4.6 °C 29.7in /  1004.1hPa WSW 5.4mph /  8.7km/h 5.8mph /  9.3km/h 46% 0in /  0.0mm CLR
12:55 61.2 °F /  16.2 °C 40.3 °F /  4.6 °C 29.7in /  1004.1hPa West 5.4mph /  8.7km/h 4.7mph /  7.6km/h 46% 0in /  0.0mm CLR
13:00 60.8 °F /  16.0 °C 39.7 °F /  4.3 °C 29.7in /  1004.1hPa WSW 5mph /  8.0km/h 6mph /  9.7km/h 46% 0in /  0.0mm CLR
13:05 60.4 °F /  15.8 °C 39 °F /  3.9 °C 29.7in /  1004.0hPa WSW 4mph /  6.4km/h 4.6mph /  7.4km/h 45% 0in /  0.0mm CLR
13:10 60.8 °F /  16.0 °C 39.4 °F /  4.1 °C 29.7in /  1004.0hPa South 2.4mph /  3.9km/h 5.8mph /  9.3km/h 45% 0in /  0.0mm CLR
13:15 61.2 °F /  16.2 °C 39.6 °F /  4.2 °C 29.7in /  1004.0hPa SSE 2.4mph /  3.9km/h 8.1mph /  13.0km/h 45% 0in /  0.0mm CLR
13:20 61.5 °F /  16.4 °C 39.4 °F /  4.1 °C 29.6in /  1003.9hPa SSW 4.7mph /  7.6km/h 4.6mph /  7.4km/h 44% 0in /  0.0mm CLR
13:25 61.9 °F /  16.6 °C 39 °F /  3.9 °C 29.6in /  1003.9hPa SSE 4.7mph /  7.6km/h 8.1mph /  13.0km/h 43% 0in /  0.0mm CLR
13:30 62.1 °F /  16.7 °C 38.7 °F /  3.7 °C 29.6in /  1003.9hPa South 3.6mph /  5.8km/h 6.9mph /  11.1km/h 42% 0in /  0.0mm CLR
13:35 62.1 °F /  16.7 °C 38.7 °F /  3.7 °C 29.6in /  1003.8hPa ESE 3.6mph /  5.8km/h 4.6mph /  7.4km/h 42% 0in /  0.0mm CLR
13:40 62.1 °F /  16.7 °C 36.1 °F /  2.3 °C 29.6in /  1003.8hPa ESE 4.3mph /  6.9km/h 8.1mph /  13.0km/h 38% 0in /  0.0mm CLR
13:45 62.2 °F /  16.8 °C 36.3 °F /  2.4 °C 29.6in /  1003.8hPa SE 4.3mph /  6.9km/h 6.9mph /  11.1km/h 38% 0in /  0.0mm CLR
13:50 62.6 °F /  17.0 °C 36 °F /  2.2 °C 29.6in /  1003.6hPa SE 5.4mph /  8.7km/h 6.9mph /  11.1km/h 37% 0in /  0.0mm CLR
13:55 63 °F /  17.2 °C 36.3 °F /  2.4 °C 29.6in /  1003.6hPa SSE 5.4mph /  8.7km/h 5.4mph /  8.7km/h 37% 0in /  0.0mm CLR
14:00 63.3 °F /  17.4 °C 37.2 °F /  2.9 °C 29.6in /  1003.6hPa SE 5mph /  8.0km/h 12mph /  19.3km/h 38% 0in /  0.0mm CLR
14:05 63 °F /  17.2 °C 36.9 °F /  2.7 °C 29.6in /  1003.5hPa East 5.2mph /  8.4km/h 6.9mph /  11.1km/h 38% 0in /  0.0mm CLR
14:10 63.1 °F /  17.3 °C 36.3 °F /  2.4 °C 29.6in /  1003.5hPa SE 5.9mph /  9.5km/h 8.1mph /  13.0km/h 37% 0in /  0.0mm CLR
14:15 63.3 °F /  17.4 °C 36.7 °F /  2.6 °C 29.6in /  1003.5hPa ESE 5.9mph /  9.5km/h 5.8mph /  9.3km/h 37% 0in /  0.0mm CLR
14:20 63.1 °F /  17.3 °C 37 °F /  2.8 °C 29.6in /  1003.3hPa SE 5.4mph /  8.7km/h 8.1mph /  13.0km/h 38% 0in /  0.0mm CLR
14:25 63 °F /  17.2 °C 42.4 °F /  5.8 °C 29.6in /  1003.3hPa SE 5.4mph /  8.7km/h 20.7mph /  33.3km/h 47% 0in /  0.0mm CLR
14:30 62.8 °F /  17.1 °C 43.3 °F /  6.3 °C 29.6in /  1003.3hPa SE 7.4mph /  11.9km/h 15mph /  24.1km/h 49% 0in /  0.0mm CLR
14:35 62.8 °F /  17.1 °C 43.3 °F /  6.3 °C 29.6in /  1003.0hPa ESE 7.4mph /  11.9km/h 16.1mph /  25.9km/h 49% 0in /  0.0mm CLR
14:40 62.6 °F /  17.0 °C 42.6 °F /  5.9 °C 29.6in /  1003.0hPa SSE 9.2mph /  14.8km/h 12.7mph /  20.4km/h 48% 0in /  0.0mm CLR
14:45 62.4 °F /  16.9 °C 43 °F /  6.1 °C 29.6in /  1003.0hPa SE 9.2mph /  14.8km/h 15mph /  24.1km/h 49% 0in /  0.0mm CLR
14:50 62.4 °F /  16.9 °C 43 °F /  6.1 °C 29.6in /  1002.9hPa SSE 8.7mph /  14.0km/h 15mph /  24.1km/h 49% 0in /  0.0mm CLR
14:55 62.4 °F /  16.9 °C 41.9 °F /  5.5 °C 29.6in /  1002.9hPa East 8.7mph /  14.0km/h 15mph /  24.1km/h 47% 0in /  0.0mm CLR
15:00 62.4 °F /  16.9 °C 40.8 °F /  4.9 °C 29.6in /  1002.9hPa SE 9mph /  14.5km/h 15mph /  24.1km/h 45% 0in /  0.0mm CLR
15:05 63 °F /  17.2 °C 42.4 °F /  5.8 °C 29.6in /  1002.8hPa ESE 9.7mph /  15.6km/h 17.3mph /  27.8km/h 47% 0in /  0.0mm CLR
15:10 63.1 °F /  17.3 °C 42.6 °F /  5.9 °C 29.6in /  1002.8hPa NE 10mph /  16.1km/h 15mph /  24.1km/h 47% 0in /  0.0mm CLR
15:15 63.3 °F /  17.4 °C 42.3 °F /  5.7 °C 29.6in /  1002.8hPa SSE 10mph /  16.1km/h 11.4mph /  18.3km/h 46% 0in /  0.0mm CLR
15:20 63 °F /  17.2 °C 40.6 °F /  4.8 °C 29.6in /  1002.5hPa SSE 10.2mph /  16.4km/h 10.4mph /  16.7km/h 44% 0in /  0.0mm CLR
15:25 63 °F /  17.2 °C 43 °F /  6.1 °C 29.6in /  1002.5hPa ESE 10.2mph /  16.4km/h 18.4mph /  29.6km/h 48% 0in /  0.0mm CLR
15:30 63 °F /  17.2 °C 40.6 °F /  4.8 °C 29.6in /  1002.5hPa South 9.7mph /  15.6km/h 11.5mph /  18.5km/h 44% 0in /  0.0mm CLR
15:35 63.3 °F /  17.4 °C 41 °F /  5.0 °C 29.6in /  1002.2hPa SE 9.7mph /  15.6km/h 15.6mph /  25.1km/h 44% 0in /  0.0mm CLR
15:40 63.3 °F /  17.4 °C 41 °F /  5.0 °C 29.6in /  1002.2hPa SE 9.7mph /  15.6km/h 11.5mph /  18.5km/h 44% 0in /  0.0mm CLR
15:45 63.9 °F /  17.7 °C 42.1 °F /  5.6 °C 29.6in /  1002.2hPa SE 9.7mph /  15.6km/h 17.3mph /  27.8km/h 45% 0in /  0.0mm CLR
15:50 63.9 °F /  17.7 °C 41.5 °F /  5.3 °C 29.6in /  1002.1hPa SSE 8.7mph /  14.0km/h 18.4mph /  29.6km/h 44% 0in /  0.0mm CLR
15:55 63.7 °F /  17.6 °C 41.4 °F /  5.2 °C 29.6in /  1002.1hPa SSE 8.7mph /  14.0km/h 11.8mph /  19.0km/h 44% 0in /  0.0mm CLR
16:00 63.9 °F /  17.7 °C 41 °F /  5.0 °C 29.6in /  1002.1hPa SSE 10mph /  16.1km/h 18mph /  29.0km/h 43% 0in /  0.0mm CLR
16:05 63.5 °F /  17.5 °C 40.6 °F /  4.8 °C 29.6in /  1002.0hPa SE 10.2mph /  16.4km/h 12.7mph /  20.4km/h 43% 0in /  0.0mm CLR
16:10 63.7 °F /  17.6 °C 43.2 °F /  6.2 °C 29.6in /  1002.0hPa East 11.4mph /  18.3km/h 16.1mph /  25.9km/h 47% 0in /  0.0mm CLR
16:15 63.9 °F /  17.7 °C 43.2 °F /  6.2 °C 29.6in /  1002.0hPa ESE 11.4mph /  18.3km/h 16.1mph /  25.9km/h 47% 0in /  0.0mm CLR
16:20 64 °F /  17.8 °C 42.3 °F /  5.7 °C 29.6in /  1001.9hPa ESE 10.7mph /  17.2km/h 15mph /  24.1km/h 45% 0in /  0.0mm CLR
16:25 63.5 °F /  17.5 °C 43 °F /  6.1 °C 29.6in /  1001.9hPa SSE 10.7mph /  17.2km/h 12.7mph /  20.4km/h 47% 0in /  0.0mm CLR
16:30 63.7 °F /  17.6 °C 42.4 °F /  5.8 °C 29.6in /  1001.9hPa East 11.2mph /  18.0km/h 11.5mph /  18.5km/h 46% 0in /  0.0mm CLR
16:35 63.9 °F /  17.7 °C 42.1 °F /  5.6 °C 29.6in /  1001.8hPa SE 11.2mph /  18.0km/h 15mph /  24.1km/h 45% 0in /  0.0mm CLR
16:40 63.7 °F /  17.6 °C 41.9 °F /  5.5 °C 29.6in /  1001.8hPa South 9.7mph /  15.6km/h 13.5mph /  21.7km/h 45% 0in /  0.0mm CLR
16:45 63.7 °F /  17.6 °C 41.4 °F /  5.2 °C 29.6in /  1001.8hPa SE 9.7mph /  15.6km/h 13.8mph /  22.2km/h 44% 0in /  0.0mm CLR
16:50 64 °F /  17.8 °C 42.3 °F /  5.7 °C 29.6in /  1001.6hPa SE 7.6mph /  12.2km/h 11.5mph /  18.5km/h 45% 0in /  0.0mm CLR
16:55 64.4 °F /  18.0 °C 42.6 °F /  5.9 °C 29.6in /  1001.6hPa ESE 7.6mph /  12.2km/h 13.8mph /  22.2km/h 45% 0in /  0.0mm CLR
17:00 64.6 °F /  18.1 °C 42.6 °F /  5.9 °C 29.6in /  1001.6hPa SE 8mph /  12.9km/h 17mph /  27.4km/h 45% 0in /  0.0mm CLR
17:05 64.8 °F /  18.2 °C 43.5 °F /  6.4 °C 29.6in /  1001.5hPa ESE 8.5mph /  13.7km/h 12.7mph /  20.4km/h 46% 0in /  0.0mm CLR
17:10 64.6 °F /  18.1 °C 42.6 °F /  5.9 °C 29.6in /  1001.5hPa SE 10mph /  16.1km/h 15mph /  24.1km/h 45% 0in /  0.0mm CLR
17:15 64.6 °F /  18.1 °C 43.9 °F /  6.6 °C 29.6in /  1001.5hPa East 10mph /  16.1km/h 11.5mph /  18.5km/h 47% 0in /  0.0mm CLR
17:20 64 °F /  17.8 °C 43.9 °F /  6.6 °C 29.6in /  1001.6hPa SSE 10mph /  16.1km/h 11.5mph /  18.5km/h 48% 0in /  0.0mm CLR
17:25 64.2 °F /  17.9 °C 43.5 °F /  6.4 °C 29.6in /  1001.6hPa SSE 10mph /  16.1km/h 17.3mph /  27.8km/h 47% 0in /  0.0mm CLR
17:30 64.2 °F /  17.9 °C 43.5 °F /  6.4 °C 29.6in /  1001.6hPa SE 9.7mph /  15.6km/h 12.7mph /  20.4km/h 47% 0in /  0.0mm CLR
17:35 63.9 °F /  17.7 °C 43.2 °F /  6.2 °C 29.6in /  1001.5hPa SE 9.7mph /  15.6km/h 12.7mph /  20.4km/h 47% 0in /  0.0mm CLR
17:40 64 °F /  17.8 °C 43.3 °F /  6.3 °C 29.6in /  1001.5hPa SE 9.7mph /  15.6km/h 15mph /  24.1km/h 47% 0in /  0.0mm CLR
17:45 64 °F /  17.8 °C 43.9 °F /  6.6 °C 29.6in /  1001.5hPa SSE 9.7mph /  15.6km/h 11.5mph /  18.5km/h 48% 0in /  0.0mm CLR
17:50 64 °F /  17.8 °C 43.9 °F /  6.6 °C 29.6in /  1001.4hPa SE 10mph /  16.1km/h 17.3mph /  27.8km/h 48% 0in /  0.0mm CLR
17:55 63.9 °F /  17.7 °C 44.2 °F /  6.8 °C 29.6in /  1001.4hPa SE 10mph /  16.1km/h 16.8mph /  27.0km/h 49% 0in /  0.0mm CLR
18:00 63.3 °F /  17.4 °C 43.9 °F /  6.6 °C 29.6in /  1001.4hPa SE 10mph /  16.1km/h 17mph /  27.4km/h 49% 0in /  0.0mm CLR
18:05 63.7 °F /  17.6 °C 43.5 °F /  6.4 °C 29.6in /  1001.6hPa SE 10.7mph /  17.2km/h 18.5mph /  29.8km/h 48% 0in /  0.0mm CLR
18:10 63.3 °F /  17.4 °C 43.9 °F /  6.6 °C 29.6in /  1001.6hPa SSE 11.8mph /  19.0km/h 17.3mph /  27.8km/h 49% 0in /  0.0mm CLR
18:15 63.1 °F /  17.3 °C 43.7 °F /  6.5 °C 29.6in /  1001.6hPa SSE 11.8mph /  19.0km/h 12.7mph /  20.4km/h 49% 0in /  0.0mm CLR
18:20 63 °F /  17.2 °C 43.5 °F /  6.4 °C 29.6in /  1001.7hPa SE 10.2mph /  16.4km/h 15mph /  24.1km/h 49% 0in /  0.0mm CLR
18:25 62.8 °F /  17.1 °C 43.9 °F /  6.6 °C 29.6in /  1001.7hPa ESE 10.2mph /  16.4km/h 23mph /  37.0km/h 50% 0in /  0.0mm CLR
18:30 62.4 °F /  16.9 °C 44.1 °F /  6.7 °C 29.6in /  1001.7hPa SE 11.8mph /  19.0km/h 20.7mph /  33.3km/h 51% 0in /  0.0mm CLR
18:35 62.4 °F /  16.9 °C 44.1 °F /  6.7 °C 29.6in /  1001.7hPa SE 11.8mph /  19.0km/h 12.7mph /  20.4km/h 51% 0in /  0.0mm CLR
18:40 62.2 °F /  16.8 °C 44.4 °F /  6.9 °C 29.6in /  1001.7hPa SE 10mph /  16.1km/h 13.8mph /  22.2km/h 52% 0in /  0.0mm CLR
18:45 62.2 °F /  16.8 °C 43.9 °F /  6.6 °C 29.6in /  1001.7hPa SE 10mph /  16.1km/h 17.8mph /  28.6km/h 51% 0in /  0.0mm CLR
18:50 62.1 °F /  16.7 °C 43.7 °F /  6.5 °C 29.6in /  1001.8hPa SE 9.2mph /  14.8km/h 16.1mph /  25.9km/h 51% 0in /  0.0mm CLR
18:55 61.5 °F /  16.4 °C 43.7 °F /  6.5 °C 29.6in /  1001.8hPa SSE 9.2mph /  14.8km/h 19.6mph /  31.5km/h 52% 0in /  0.0mm CLR
19:00 61.3 °F /  16.3 °C 44.1 °F /  6.7 °C 29.6in /  1001.8hPa SSE 13mph /  20.9km/h 20mph /  32.2km/h 53% 0in /  0.0mm CLR
19:05 61.3 °F /  16.3 °C 44.1 °F /  6.7 °C 29.6in /  1001.9hPa SE 12.5mph /  20.1km/h 18.4mph /  29.6km/h 53% 0in /  0.0mm CLR
19:10 61.2 °F /  16.2 °C 44.4 °F /  6.9 °C 29.6in /  1001.9hPa South 10.7mph /  17.2km/h 15mph /  24.1km/h 54% 0in /  0.0mm CLR
19:15 61.2 °F /  16.2 °C 43.9 °F /  6.6 °C 29.6in /  1001.9hPa SSE 10.7mph /  17.2km/h 15mph /  24.1km/h 53% 0in /  0.0mm CLR
19:20 61 °F /  16.1 °C 44.2 °F /  6.8 °C 29.6in /  1002.0hPa ESE 10mph /  16.1km/h 12.7mph /  20.4km/h 54% 0in /  0.0mm CLR
19:25 61 °F /  16.1 °C 43.7 °F /  6.5 °C 29.6in /  1002.0hPa SE 10mph /  16.1km/h 17.3mph /  27.8km/h 53% 0in /  0.0mm CLR
19:30 61 °F /  16.1 °C 43.7 °F /  6.5 °C 29.6in /  1002.0hPa SE 8.1mph /  13.0km/h 15mph /  24.1km/h 53% 0in /  0.0mm CLR
19:35 60.6 °F /  15.9 °C 43.3 °F /  6.3 °C 29.6in /  1002.1hPa SSE 8.1mph /  13.0km/h 15mph /  24.1km/h 53% 0in /  0.0mm CLR
19:40 60.6 °F /  15.9 °C 43.9 °F /  6.6 °C 29.6in /  1002.1hPa SE 9.2mph /  14.8km/h 18.4mph /  29.6km/h 54% 0in /  0.0mm CLR
19:45 60.4 °F /  15.8 °C 43.7 °F /  6.5 °C 29.6in /  1002.1hPa SE 9.2mph /  14.8km/h 11.5mph /  18.5km/h 54% 0in /  0.0mm CLR
19:50 60.4 °F /  15.8 °C 43.2 °F /  6.2 °C 29.6in /  1002.1hPa SE 8.5mph /  13.7km/h 15mph /  24.1km/h 53% 0in /  0.0mm CLR
19:55 60.4 °F /  15.8 °C 43.2 °F /  6.2 °C 29.6in /  1002.1hPa South 8.5mph /  13.7km/h 9.2mph /  14.8km/h 53% 0in /  0.0mm CLR
20:00 60.3 °F /  15.7 °C 43.2 °F /  6.2 °C 29.6in /  1002.1hPa South 8mph /  12.9km/h 12mph /  19.3km/h 53% 0in /  0.0mm CLR
20:05 60.3 °F /  15.7 °C 42.6 °F /  5.9 °C 29.6in /  1002.3hPa SE 7.6mph /  12.2km/h 12.7mph /  20.4km/h 52% 0in /  0.0mm CLR
20:10 60.1 °F /  15.6 °C 43 °F /  6.1 °C 29.6in /  1002.3hPa ESE 6.9mph /  11.1km/h 12.7mph /  20.4km/h 53% 0in /  0.0mm CLR
20:15 60.1 °F /  15.6 °C 43 °F /  6.1 °C 29.6in /  1002.3hPa ESE 6.9mph /  11.1km/h 11.5mph /  18.5km/h 53% 0in /  0.0mm CLR
20:20 59.9 °F /  15.5 °C 43.2 °F /  6.2 °C 29.6in /  1002.3hPa South 7.6mph /  12.2km/h 7.4mph /  11.9km/h 54% 0in /  0.0mm CLR
20:25 59.7 °F /  15.4 °C 43 °F /  6.1 °C 29.6in /  1002.3hPa SSE 7.6mph /  12.2km/h 10.4mph /  16.7km/h 54% 0in /  0.0mm CLR
20:30 59.5 °F /  15.3 °C 43.3 °F /  6.3 °C 29.6in /  1002.3hPa SSE 7.4mph /  11.9km/h 8.1mph /  13.0km/h 55% 0in /  0.0mm CLR
20:35 59.5 °F /  15.3 °C 43.9 °F /  6.6 °C 29.6in /  1002.3hPa South 7.4mph /  11.9km/h 8.1mph /  13.0km/h 56% 0in /  0.0mm CLR
20:40 59.5 °F /  15.3 °C 43.9 °F /  6.6 °C 29.6in /  1002.3hPa SSW 5.9mph /  9.5km/h 10.4mph /  16.7km/h 56% 0in /  0.0mm CLR
20:45 59.4 °F /  15.2 °C 44.1 °F /  6.7 °C 29.6in /  1002.3hPa South 5.9mph /  9.5km/h 12.3mph /  19.8km/h 57% 0in /  0.0mm CLR
20:50 59.2 °F /  15.1 °C 43.9 °F /  6.6 °C 29.6in /  1002.3hPa South 6.4mph /  10.3km/h 10.4mph /  16.7km/h 57% 0in /  0.0mm CLR
20:55 59 °F /  15.0 °C 44.2 °F /  6.8 °C 29.6in /  1002.3hPa SE 6.4mph /  10.3km/h 9.2mph /  14.8km/h 58% 0in /  0.0mm CLR
21:00 59.2 °F /  15.1 °C 44.4 °F /  6.9 °C 29.6in /  1002.3hPa SSE 7mph /  11.3km/h 10mph /  16.1km/h 58% 0in /  0.0mm CLR
21:05 59 °F /  15.0 °C 44.2 °F /  6.8 °C 29.6in /  1002.3hPa South 6.4mph /  10.3km/h 11.4mph /  18.3km/h 58% 0in /  0.0mm CLR
21:10 58.8 °F /  14.9 °C 44.4 °F /  6.9 °C 29.6in /  1002.3hPa SE 6.2mph /  10.0km/h 9.2mph /  14.8km/h 59% 0in /  0.0mm CLR
21:15 58.6 °F /  14.8 °C 44.2 °F /  6.8 °C 29.6in /  1002.3hPa SSE 6.2mph /  10.0km/h 11.5mph /  18.5km/h 59% 0in /  0.0mm CLR
21:20 58.6 °F /  14.8 °C 44.8 °F /  7.1 °C 29.6in /  1002.4hPa South 6.4mph /  10.3km/h 10.4mph /  16.7km/h 60% 0in /  0.0mm CLR
21:25 58.5 °F /  14.7 °C 44.6 °F /  7.0 °C 29.6in /  1002.4hPa ESE 6.4mph /  10.3km/h 10.4mph /  16.7km/h 60% 0in /  0.0mm CLR
21:30 58.5 °F /  14.7 °C 44.6 °F /  7.0 °C 29.6in /  1002.4hPa South 6.9mph /  11.1km/h 5.8mph /  9.3km/h 60% 0in /  0.0mm CLR
21:35 58.5 °F /  14.7 °C 44.6 °F /  7.0 °C 29.6in /  1002.5hPa South 6.9mph /  11.1km/h 9.2mph /  14.8km/h 60% 0in /  0.0mm CLR
21:40 58.5 °F /  14.7 °C 44.6 °F /  7.0 °C 29.6in /  1002.5hPa SE 4.7mph /  7.6km/h 8.1mph /  13.0km/h 60% 0in /  0.0mm CLR
21:45 58.5 °F /  14.7 °C 44.6 °F /  7.0 °C 29.6in /  1002.5hPa East 4.7mph /  7.6km/h 9.2mph /  14.8km/h 60% 0in /  0.0mm CLR
21:50 58.5 °F /  14.7 °C 44.6 °F /  7.0 °C 29.6in /  1002.7hPa SE 5.4mph /  8.7km/h 8.1mph /  13.0km/h 60% 0in /  0.0mm CLR
21:55 58.5 °F /  14.7 °C 44.6 °F /  7.0 °C 29.6in /  1002.7hPa SSW 5.4mph /  8.7km/h 6.9mph /  11.1km/h 60% 0in /  0.0mm CLR
22:00 58.3 °F /  14.6 °C 44.4 °F /  6.9 °C 29.6in /  1002.7hPa South 5mph /  8.0km/h 7mph /  11.3km/h 60% 0in /  0.0mm CLR
22:05 58.3 °F /  14.6 °C 45 °F /  7.2 °C 29.6in /  1002.8hPa South 4.7mph /  7.6km/h 4.7mph /  7.6km/h 61% 0in /  0.0mm CLR
22:10 58.3 °F /  14.6 °C 44.4 °F /  6.9 °C 29.6in /  1002.8hPa SSW 2.4mph /  3.9km/h 3.5mph /  5.6km/h 60% 0in /  0.0mm CLR
22:15 58.3 °F /  14.6 °C 44.4 °F /  6.9 °C 29.6in /  1002.8hPa South 2.4mph /  3.9km/h 4.6mph /  7.4km/h 60% 0in /  0.0mm CLR
22:20 58.3 °F /  14.6 °C 44.4 °F /  6.9 °C 29.6in /  1002.8hPa SSE 2.9mph /  4.7km/h 8.1mph /  13.0km/h 60% 0in /  0.0mm CLR
22:25 58.3 °F /  14.6 °C 44.4 °F /  6.9 °C 29.6in /  1002.8hPa WSW 2.9mph /  4.7km/h 4.6mph /  7.4km/h 60% 0in /  0.0mm CLR
22:30 58.3 °F /  14.6 °C 44.4 °F /  6.9 °C 29.6in /  1002.8hPa WSW 3.1mph /  5.0km/h 4.6mph /  7.4km/h 60% 0in /  0.0mm CLR
22:35 58.5 °F /  14.7 °C 45.1 °F /  7.3 °C 29.6in /  1003.0hPa SSE 3.1mph /  5.0km/h 5.2mph /  8.4km/h 61% 0in /  0.0mm CLR
22:40 58.5 °F /  14.7 °C 44.6 °F /  7.0 °C 29.6in /  1003.0hPa SSW 3.6mph /  5.8km/h 5.8mph /  9.3km/h 60% 0in /  0.0mm CLR
22:45 58.5 °F /  14.7 °C 45.1 °F /  7.3 °C 29.6in /  1003.0hPa SE 3.6mph /  5.8km/h 8.1mph /  13.0km/h 61% 0in /  0.0mm CLR
22:50 58.3 °F /  14.6 °C 45 °F /  7.2 °C 29.6in /  1003.0hPa SE 3.6mph /  5.8km/h 8.1mph /  13.0km/h 61% 0in /  0.0mm CLR
22:55 58.3 °F /  14.6 °C 45 °F /  7.2 °C 29.6in /  1003.0hPa SSW 3.6mph /  5.8km/h 5.8mph /  9.3km/h 61% 0in /  0.0mm CLR
23:00 58.3 °F /  14.6 °C 45 °F /  7.2 °C 29.6in /  1003.0hPa South 3mph /  4.8km/h 6mph /  9.7km/h 61% 0in /  0.0mm CLR
23:05 58.3 °F /  14.6 °C 45 °F /  7.2 °C 29.6in /  1003.0hPa South 3.1mph /  5.0km/h 4.6mph /  7.4km/h 61% 0in /  0.0mm CLR
23:10 58.1 °F /  14.5 °C 44.8 °F /  7.1 °C 29.6in /  1003.0hPa SE 3.6mph /  5.8km/h 5.8mph /  9.3km/h 61% 0in /  0.0mm CLR
23:15 58.1 °F /  14.5 °C 45.1 °F /  7.3 °C 29.6in /  1003.0hPa SE 3.6mph /  5.8km/h 2.3mph /  3.7km/h 62% 0in /  0.0mm CLR
23:20 58.1 °F /  14.5 °C 44.8 °F /  7.1 °C 29.6in /  1003.1hPa WSW 2.4mph /  3.9km/h 4.6mph /  7.4km/h 61% 0in /  0.0mm CLR
23:25 58.3 °F /  14.6 °C 45.3 °F /  7.4 °C 29.6in /  1003.1hPa SE 2.4mph /  3.9km/h 5.2mph /  8.4km/h 62% 0in /  0.0mm CLR
23:30 58.3 °F /  14.6 °C 45 °F /  7.2 °C 29.6in /  1003.1hPa South 3.1mph /  5.0km/h 4.6mph /  7.4km/h 61% 0in /  0.0mm CLR
23:35 58.1 °F /  14.5 °C 45.1 °F /  7.3 °C 29.6in /  1003.2hPa South 3.1mph /  5.0km/h 3.5mph /  5.6km/h 62% 0in /  0.0mm CLR
23:40 58.1 °F /  14.5 °C 45.1 °F /  7.3 °C 29.6in /  1003.2hPa South 2.4mph /  3.9km/h 3.5mph /  5.6km/h 62% 0in /  0.0mm CLR
23:45 58.3 °F /  14.6 °C 45.3 °F /  7.4 °C 29.6in /  1003.2hPa ESE 2.4mph /  3.9km/h 4.6mph /  7.4km/h 62% 0in /  0.0mm CLR
23:50 58.3 °F /  14.6 °C 45.3 °F /  7.4 °C 29.6in /  1003.0hPa SSE 2.4mph /  3.9km/h 4.6mph /  7.4km/h 62% 0in /  0.0mm CLR
23:55 58.3 °F /  14.6 °C 45.3 °F /  7.4 °C 29.6in /  1003.0hPa SSW 2.4mph /  3.9km/h 4.6mph /  7.4km/h 62% 0in /  0.0mm CLR
Murcia-Puente Tocinos, España
Compliments of Weather Underground - 2.75 mb

La estación de MeteoMurcia.com, publica sus datos en los siguientes proyectos:

Weather Underground PWS IMURCIAP2 Meteoclimatic www.awekas.at

W3Counter
Web Analytics